sensor_id;sensor_type;location;lat;lon;timestamp;P1;durP1;ratioP1;P2;durP2;ratioP2
28481;SDS011;15703;49.588;6.260;2023-04-03T00:00:56;3.00;;;2.80;;
28481;SDS011;15703;49.588;6.260;2023-04-03T00:03:19;3.97;;;3.67;;
28481;SDS011;15703;49.588;6.260;2023-04-03T00:05:41;3.40;;;3.00;;
28481;SDS011;15703;49.588;6.260;2023-04-03T00:08:03;2.90;;;2.60;;
28481;SDS011;15703;49.588;6.260;2023-04-03T00:10:29;3.80;;;3.10;;
28481;SDS011;15703;49.588;6.260;2023-04-03T00:12:51;3.17;;;2.93;;
28481;SDS011;15703;49.588;6.260;2023-04-03T00:15:13;3.30;;;3.00;;
28481;SDS011;15703;49.588;6.260;2023-04-03T00:17:36;3.33;;;3.03;;
28481;SDS011;15703;49.588;6.260;2023-04-03T00:19:58;3.10;;;2.90;;
28481;SDS011;15703;49.588;6.260;2023-04-03T00:22:20;2.90;;;2.70;;
28481;SDS011;15703;49.588;6.260;2023-04-03T00:24:42;2.90;;;2.60;;
28481;SDS011;15703;49.588;6.260;2023-04-03T00:27:05;4.07;;;3.27;;
28481;SDS011;15703;49.588;6.260;2023-04-03T00:29:27;3.40;;;3.10;;
28481;SDS011;15703;49.588;6.260;2023-04-03T00:31:49;3.43;;;2.93;;
28481;SDS011;15703;49.588;6.260;2023-04-03T00:34:11;2.67;;;2.50;;
28481;SDS011;15703;49.588;6.260;2023-04-03T00:36:34;3.23;;;2.93;;
28481;SDS011;15703;49.588;6.260;2023-04-03T00:38:56;3.30;;;3.10;;
28481;SDS011;15703;49.588;6.260;2023-04-03T00:41:19;3.17;;;2.97;;
28481;SDS011;15703;49.588;6.260;2023-04-03T00:43:41;2.73;;;2.60;;
28481;SDS011;15703;49.588;6.260;2023-04-03T00:46:03;3.63;;;3.43;;
28481;SDS011;15703;49.588;6.260;2023-04-03T00:48:28;3.33;;;3.03;;
28481;SDS011;15703;49.588;6.260;2023-04-03T00:50:51;3.90;;;3.13;;
28481;SDS011;15703;49.588;6.260;2023-04-03T00:53:16;2.90;;;2.70;;
28481;SDS011;15703;49.588;6.260;2023-04-03T00:55:39;3.73;;;3.30;;
28481;SDS011;15703;49.588;6.260;2023-04-03T00:58:01;3.17;;;2.97;;
28481;SDS011;15703;49.588;6.260;2023-04-03T01:00:24;5.07;;;3.30;;
28481;SDS011;15703;49.588;6.260;2023-04-03T01:02:47;3.00;;;2.80;;
28481;SDS011;15703;49.588;6.260;2023-04-03T01:05:10;3.17;;;2.97;;
28481;SDS011;15703;49.588;6.260;2023-04-03T01:07:32;3.97;;;3.43;;
28481;SDS011;15703;49.588;6.260;2023-04-03T01:10:00;3.37;;;3.17;;
28481;SDS011;15703;49.588;6.260;2023-04-03T01:14:52;4.07;;;3.67;;
28481;SDS011;15703;49.588;6.260;2023-04-03T01:19:51;3.97;;;3.40;;
28481;SDS011;15703;49.588;6.260;2023-04-03T01:22:21;3.30;;;3.10;;
28481;SDS011;15703;49.588;6.260;2023-04-03T01:24:48;3.37;;;3.17;;
28481;SDS011;15703;49.588;6.260;2023-04-03T01:27:12;3.87;;;3.30;;
28481;SDS011;15703;49.588;6.260;2023-04-03T01:29:34;3.30;;;3.10;;
28481;SDS011;15703;49.588;6.260;2023-04-03T01:31:58;3.67;;;3.37;;
28481;SDS011;15703;49.588;6.260;2023-04-03T01:34:21;3.60;;;3.30;;
28481;SDS011;15703;49.588;6.260;2023-04-03T01:36:44;3.50;;;3.20;;
28481;SDS011;15703;49.588;6.260;2023-04-03T01:39:06;4.73;;;3.90;;
28481;SDS011;15703;49.588;6.260;2023-04-03T01:41:29;3.97;;;3.67;;
28481;SDS011;15703;49.588;6.260;2023-04-03T01:43:59;3.47;;;3.17;;
28481;SDS011;15703;49.588;6.260;2023-04-03T01:46:22;3.67;;;3.47;;
28481;SDS011;15703;49.588;6.260;2023-04-03T01:48:45;4.03;;;3.67;;
28481;SDS011;15703;49.588;6.260;2023-04-03T01:51:07;3.83;;;3.53;;
28481;SDS011;15703;49.588;6.260;2023-04-03T01:53:29;4.07;;;3.77;;
28481;SDS011;15703;49.588;6.260;2023-04-03T01:55:52;3.30;;;3.10;;
28481;SDS011;15703;49.588;6.260;2023-04-03T01:58:14;3.90;;;3.60;;
28481;SDS011;15703;49.588;6.260;2023-04-03T02:00:36;3.90;;;3.60;;
28481;SDS011;15703;49.588;6.260;2023-04-03T02:02:59;3.63;;;3.33;;
28481;SDS011;15703;49.588;6.260;2023-04-03T02:05:21;4.87;;;3.30;;
28481;SDS011;15703;49.588;6.260;2023-04-03T02:07:44;4.60;;;3.47;;
28481;SDS011;15703;49.588;6.260;2023-04-03T02:10:07;3.60;;;3.30;;
28481;SDS011;15703;49.588;6.260;2023-04-03T02:12:29;3.87;;;3.50;;
28481;SDS011;15703;49.588;6.260;2023-04-03T02:14:52;6.07;;;3.63;;
28481;SDS011;15703;49.588;6.260;2023-04-03T02:17:14;3.80;;;3.50;;
28481;SDS011;15703;49.588;6.260;2023-04-03T02:19:37;7.30;;;4.37;;
28481;SDS011;15703;49.588;6.260;2023-04-03T02:21:59;5.87;;;3.83;;
28481;SDS011;15703;49.588;6.260;2023-04-03T02:24:21;3.97;;;3.67;;
28481;SDS011;15703;49.588;6.260;2023-04-03T02:26:44;3.80;;;3.40;;
28481;SDS011;15703;49.588;6.260;2023-04-03T02:29:06;3.57;;;3.27;;
28481;SDS011;15703;49.588;6.260;2023-04-03T02:31:29;4.47;;;3.60;;
28481;SDS011;15703;49.588;6.260;2023-04-03T02:33:53;4.40;;;3.97;;
28481;SDS011;15703;49.588;6.260;2023-04-03T02:36:15;4.10;;;3.30;;
28481;SDS011;15703;49.588;6.260;2023-04-03T02:38:44;3.70;;;3.47;;
28481;SDS011;15703;49.588;6.260;2023-04-03T02:41:07;3.40;;;3.17;;
28481;SDS011;15703;49.588;6.260;2023-04-03T02:43:30;3.63;;;3.23;;
28481;SDS011;15703;49.588;6.260;2023-04-03T02:45:52;4.90;;;3.83;;
28481;SDS011;15703;49.588;6.260;2023-04-03T02:48:15;4.07;;;3.73;;
28481;SDS011;15703;49.588;6.260;2023-04-03T02:50:38;4.00;;;3.63;;
28481;SDS011;15703;49.588;6.260;2023-04-03T02:53:00;4.23;;;3.70;;
28481;SDS011;15703;49.588;6.260;2023-04-03T02:55:22;4.00;;;3.60;;
28481;SDS011;15703;49.588;6.260;2023-04-03T02:57:47;4.17;;;3.80;;
28481;SDS011;15703;49.588;6.260;2023-04-03T03:00:10;4.30;;;3.90;;
28481;SDS011;15703;49.588;6.260;2023-04-03T03:02:32;5.57;;;4.33;;
28481;SDS011;15703;49.588;6.260;2023-04-03T03:04:54;3.83;;;3.53;;
28481;SDS011;15703;49.588;6.260;2023-04-03T03:07:17;3.90;;;3.50;;
28481;SDS011;15703;49.588;6.260;2023-04-03T03:09:40;4.43;;;4.10;;
28481;SDS011;15703;49.588;6.260;2023-04-03T03:12:02;4.80;;;4.40;;
28481;SDS011;15703;49.588;6.260;2023-04-03T03:14:24;4.27;;;3.87;;
28481;SDS011;15703;49.588;6.260;2023-04-03T03:16:47;3.90;;;3.70;;
28481;SDS011;15703;49.588;6.260;2023-04-03T03:19:09;6.00;;;4.43;;
28481;SDS011;15703;49.588;6.260;2023-04-03T03:21:31;3.77;;;3.47;;
28481;SDS011;15703;49.588;6.260;2023-04-03T03:23:55;4.47;;;4.17;;
28481;SDS011;15703;49.588;6.260;2023-04-03T03:26:17;5.63;;;4.03;;
28481;SDS011;15703;49.588;6.260;2023-04-03T03:28:40;4.57;;;4.20;;
28481;SDS011;15703;49.588;6.260;2023-04-03T03:31:02;5.73;;;5.23;;
28481;SDS011;15703;49.588;6.260;2023-04-03T03:33:25;6.20;;;4.47;;
28481;SDS011;15703;49.588;6.260;2023-04-03T03:35:48;4.70;;;4.40;;
28481;SDS011;15703;49.588;6.260;2023-04-03T03:38:11;4.87;;;4.47;;
28481;SDS011;15703;49.588;6.260;2023-04-03T03:40:33;4.80;;;4.43;;
28481;SDS011;15703;49.588;6.260;2023-04-03T03:42:56;4.97;;;4.50;;
28481;SDS011;15703;49.588;6.260;2023-04-03T03:45:18;3.97;;;3.67;;
28481;SDS011;15703;49.588;6.260;2023-04-03T03:47:41;4.20;;;3.90;;
28481;SDS011;15703;49.588;6.260;2023-04-03T03:50:06;5.57;;;4.37;;
28481;SDS011;15703;49.588;6.260;2023-04-03T03:52:28;4.93;;;4.43;;
28481;SDS011;15703;49.588;6.260;2023-04-03T03:54:51;5.73;;;4.67;;
28481;SDS011;15703;49.588;6.260;2023-04-03T03:57:14;4.33;;;3.97;;
28481;SDS011;15703;49.588;6.260;2023-04-03T03:59:37;7.60;;;4.70;;
28481;SDS011;15703;49.588;6.260;2023-04-03T04:02:01;4.93;;;4.33;;
28481;SDS011;15703;49.588;6.260;2023-04-03T04:04:23;4.50;;;4.00;;
28481;SDS011;15703;49.588;6.260;2023-04-03T04:06:46;6.27;;;4.13;;
28481;SDS011;15703;49.588;6.260;2023-04-03T04:09:08;5.43;;;4.10;;
28481;SDS011;15703;49.588;6.260;2023-04-03T04:11:31;4.23;;;3.93;;
28481;SDS011;15703;49.588;6.260;2023-04-03T04:13:54;4.43;;;4.03;;
28481;SDS011;15703;49.588;6.260;2023-04-03T04:16:20;5.77;;;4.70;;
28481;SDS011;15703;49.588;6.260;2023-04-03T04:18:42;4.47;;;4.07;;
28481;SDS011;15703;49.588;6.260;2023-04-03T04:21:04;4.90;;;4.57;;
28481;SDS011;15703;49.588;6.260;2023-04-03T04:23:27;4.97;;;4.47;;
28481;SDS011;15703;49.588;6.260;2023-04-03T04:25:52;4.70;;;4.40;;
28481;SDS011;15703;49.588;6.260;2023-04-03T04:28:16;4.97;;;4.53;;
28481;SDS011;15703;49.588;6.260;2023-04-03T04:30:40;5.90;;;4.67;;
28481;SDS011;15703;49.588;6.260;2023-04-03T04:33:04;5.17;;;4.70;;
28481;SDS011;15703;49.588;6.260;2023-04-03T04:35:27;5.33;;;4.50;;
28481;SDS011;15703;49.588;6.260;2023-04-03T04:37:50;4.60;;;4.20;;
28481;SDS011;15703;49.588;6.260;2023-04-03T04:40:14;4.97;;;4.07;;
28481;SDS011;15703;49.588;6.260;2023-04-03T04:42:37;5.53;;;5.03;;
28481;SDS011;15703;49.588;6.260;2023-04-03T04:45:00;4.83;;;3.90;;
28481;SDS011;15703;49.588;6.260;2023-04-03T04:47:23;4.83;;;4.40;;
28481;SDS011;15703;49.588;6.260;2023-04-03T04:49:46;4.77;;;4.10;;
28481;SDS011;15703;49.588;6.260;2023-04-03T04:52:09;6.80;;;4.80;;
28481;SDS011;15703;49.588;6.260;2023-04-03T04:54:33;4.47;;;4.13;;
28481;SDS011;15703;49.588;6.260;2023-04-03T04:56:56;4.50;;;4.10;;
28481;SDS011;15703;49.588;6.260;2023-04-03T04:59:19;4.57;;;4.27;;
28481;SDS011;15703;49.588;6.260;2023-04-03T05:01:44;4.73;;;4.17;;
28481;SDS011;15703;49.588;6.260;2023-04-03T05:04:09;4.97;;;4.57;;
28481;SDS011;15703;49.588;6.260;2023-04-03T05:06:34;5.67;;;4.80;;
28481;SDS011;15703;49.588;6.260;2023-04-03T05:09:01;5.77;;;4.20;;
28481;SDS011;15703;49.588;6.260;2023-04-03T05:11:25;4.23;;;3.93;;
28481;SDS011;15703;49.588;6.260;2023-04-03T05:13:49;4.67;;;4.30;;
28481;SDS011;15703;49.588;6.260;2023-04-03T05:16:13;5.37;;;4.03;;
28481;SDS011;15703;49.588;6.260;2023-04-03T05:18:36;5.50;;;4.20;;
28481;SDS011;15703;49.588;6.260;2023-04-03T05:21:03;5.50;;;5.10;;
28481;SDS011;15703;49.588;6.260;2023-04-03T05:23:25;4.73;;;3.80;;
28481;SDS011;15703;49.588;6.260;2023-04-03T05:25:49;4.00;;;3.73;;
28481;SDS011;15703;49.588;6.260;2023-04-03T05:28:12;4.53;;;4.13;;
28481;SDS011;15703;49.588;6.260;2023-04-03T05:30:35;4.30;;;3.73;;
28481;SDS011;15703;49.588;6.260;2023-04-03T05:33:00;4.10;;;3.80;;
28481;SDS011;15703;49.588;6.260;2023-04-03T05:35:31;4.50;;;4.13;;
28481;SDS011;15703;49.588;6.260;2023-04-03T05:37:56;6.13;;;4.43;;
28481;SDS011;15703;49.588;6.260;2023-04-03T05:40:19;4.43;;;4.03;;
28481;SDS011;15703;49.588;6.260;2023-04-03T05:42:45;4.53;;;3.93;;
28481;SDS011;15703;49.588;6.260;2023-04-03T05:45:08;4.20;;;3.90;;
28481;SDS011;15703;49.588;6.260;2023-04-03T05:47:31;4.30;;;3.50;;
28481;SDS011;15703;49.588;6.260;2023-04-03T05:49:54;5.17;;;4.37;;
28481;SDS011;15703;49.588;6.260;2023-04-03T05:52:27;4.77;;;4.10;;
28481;SDS011;15703;49.588;6.260;2023-04-03T05:54:49;5.17;;;4.63;;
28481;SDS011;15703;49.588;6.260;2023-04-03T05:57:17;8.07;;;4.90;;
28481;SDS011;15703;49.588;6.260;2023-04-03T05:59:40;7.63;;;6.37;;
28481;SDS011;15703;49.588;6.260;2023-04-03T06:02:02;5.93;;;3.77;;
28481;SDS011;15703;49.588;6.260;2023-04-03T06:04:24;4.50;;;3.87;;
28481;SDS011;15703;49.588;6.260;2023-04-03T06:06:49;9.27;;;7.50;;
28481;SDS011;15703;49.588;6.260;2023-04-03T06:09:13;4.93;;;4.43;;
28481;SDS011;15703;49.588;6.260;2023-04-03T06:11:36;4.70;;;3.90;;
28481;SDS011;15703;49.588;6.260;2023-04-03T06:13:58;5.57;;;4.47;;
28481;SDS011;15703;49.588;6.260;2023-04-03T06:16:22;4.17;;;3.77;;
28481;SDS011;15703;49.588;6.260;2023-04-03T06:18:45;3.60;;;3.30;;
28481;SDS011;15703;49.588;6.260;2023-04-03T06:21:13;3.27;;;3.07;;
28481;SDS011;15703;49.588;6.260;2023-04-03T06:23:41;3.27;;;3.07;;
28481;SDS011;15703;49.588;6.260;2023-04-03T06:26:04;4.33;;;3.20;;
28481;SDS011;15703;49.588;6.260;2023-04-03T06:28:26;3.77;;;3.30;;
28481;SDS011;15703;49.588;6.260;2023-04-03T06:30:49;3.57;;;3.27;;
28481;SDS011;15703;49.588;6.260;2023-04-03T06:33:12;3.23;;;2.93;;
28481;SDS011;15703;49.588;6.260;2023-04-03T06:35:34;2.63;;;2.53;;
28481;SDS011;15703;49.588;6.260;2023-04-03T06:37:57;3.83;;;3.33;;
28481;SDS011;15703;49.588;6.260;2023-04-03T06:40:22;3.00;;;2.80;;
28481;SDS011;15703;49.588;6.260;2023-04-03T06:42:45;2.93;;;2.73;;
28481;SDS011;15703;49.588;6.260;2023-04-03T06:45:12;3.50;;;2.77;;
28481;SDS011;15703;49.588;6.260;2023-04-03T06:47:34;3.67;;;3.27;;
28481;SDS011;15703;49.588;6.260;2023-04-03T06:49:57;2.87;;;2.67;;
28481;SDS011;15703;49.588;6.260;2023-04-03T06:52:21;3.43;;;3.10;;
28481;SDS011;15703;49.588;6.260;2023-04-03T06:54:43;3.20;;;2.90;;
28481;SDS011;15703;49.588;6.260;2023-04-03T06:57:06;2.67;;;2.53;;
28481;SDS011;15703;49.588;6.260;2023-04-03T06:59:28;2.80;;;2.60;;
28481;SDS011;15703;49.588;6.260;2023-04-03T07:01:51;3.10;;;2.80;;
28481;SDS011;15703;49.588;6.260;2023-04-03T07:04:13;4.40;;;2.50;;
28481;SDS011;15703;49.588;6.260;2023-04-03T07:06:35;2.90;;;2.43;;
28481;SDS011;15703;49.588;6.260;2023-04-03T07:08:58;10.23;;;3.03;;
28481;SDS011;15703;49.588;6.260;2023-04-03T07:11:20;2.83;;;2.57;;
28481;SDS011;15703;49.588;6.260;2023-04-03T07:13:43;3.20;;;2.90;;
28481;SDS011;15703;49.588;6.260;2023-04-03T07:16:05;3.63;;;2.43;;
28481;SDS011;15703;49.588;6.260;2023-04-03T07:18:28;2.83;;;2.60;;
28481;SDS011;15703;49.588;6.260;2023-04-03T07:20:51;5.93;;;2.67;;
28481;SDS011;15703;49.588;6.260;2023-04-03T07:23:13;2.67;;;2.47;;
28481;SDS011;15703;49.588;6.260;2023-04-03T07:25:36;4.40;;;2.87;;
28481;SDS011;15703;49.588;6.260;2023-04-03T07:27:58;2.60;;;2.40;;
28481;SDS011;15703;49.588;6.260;2023-04-03T07:30:21;3.00;;;2.23;;
28481;SDS011;15703;49.588;6.260;2023-04-03T07:32:44;2.83;;;2.60;;
28481;SDS011;15703;49.588;6.260;2023-04-03T07:35:07;2.97;;;2.50;;
28481;SDS011;15703;49.588;6.260;2023-04-03T07:37:29;3.03;;;2.40;;
28481;SDS011;15703;49.588;6.260;2023-04-03T07:39:51;5.97;;;2.63;;
28481;SDS011;15703;49.588;6.260;2023-04-03T07:42:23;4.73;;;2.50;;
28481;SDS011;15703;49.588;6.260;2023-04-03T07:44:46;2.70;;;2.50;;
28481;SDS011;15703;49.588;6.260;2023-04-03T07:47:08;3.17;;;2.57;;
28481;SDS011;15703;49.588;6.260;2023-04-03T07:49:31;2.80;;;2.23;;
28481;SDS011;15703;49.588;6.260;2023-04-03T07:51:55;2.97;;;2.40;;
28481;SDS011;15703;49.588;6.260;2023-04-03T07:54:18;4.53;;;2.43;;
28481;SDS011;15703;49.588;6.260;2023-04-03T07:56:41;3.57;;;2.70;;
28481;SDS011;15703;49.588;6.260;2023-04-03T07:59:10;4.87;;;2.93;;
28481;SDS011;15703;49.588;6.260;2023-04-03T08:01:32;4.77;;;2.70;;
28481;SDS011;15703;49.588;6.260;2023-04-03T08:03:57;3.37;;;3.03;;
28481;SDS011;15703;49.588;6.260;2023-04-03T08:06:20;3.93;;;2.70;;
28481;SDS011;15703;49.588;6.260;2023-04-03T08:09:03;3.10;;;2.50;;
28481;SDS011;15703;49.588;6.260;2023-04-03T08:11:25;3.77;;;2.77;;
28481;SDS011;15703;49.588;6.260;2023-04-03T08:13:47;4.50;;;2.53;;
28481;SDS011;15703;49.588;6.260;2023-04-03T08:16:13;2.73;;;2.27;;
28481;SDS011;15703;49.588;6.260;2023-04-03T08:18:40;4.63;;;2.10;;
28481;SDS011;15703;49.588;6.260;2023-04-03T08:21:06;3.50;;;2.30;;
28481;SDS011;15703;49.588;6.260;2023-04-03T08:23:30;3.03;;;2.20;;
28481;SDS011;15703;49.588;6.260;2023-04-03T08:25:53;3.90;;;3.23;;
28481;SDS011;15703;49.588;6.260;2023-04-03T08:28:15;2.90;;;2.53;;
28481;SDS011;15703;49.588;6.260;2023-04-03T08:30:40;2.50;;;2.30;;
28481;SDS011;15703;49.588;6.260;2023-04-03T08:33:04;2.33;;;2.10;;
28481;SDS011;15703;49.588;6.260;2023-04-03T08:35:27;3.07;;;2.50;;
28481;SDS011;15703;49.588;6.260;2023-04-03T08:37:54;3.47;;;2.50;;
28481;SDS011;15703;49.588;6.260;2023-04-03T08:40:19;3.43;;;2.40;;
28481;SDS011;15703;49.588;6.260;2023-04-03T08:45:10;4.17;;;2.50;;
28481;SDS011;15703;49.588;6.260;2023-04-03T08:50:26;2.70;;;1.90;;
28481;SDS011;15703;49.588;6.260;2023-04-03T08:52:52;2.97;;;2.20;;
28481;SDS011;15703;49.588;6.260;2023-04-03T08:57:46;2.23;;;2.03;;
28481;SDS011;15703;49.588;6.260;2023-04-03T09:02:41;7.93;;;2.33;;
28481;SDS011;15703;49.588;6.260;2023-04-03T09:05:09;3.27;;;2.40;;
28481;SDS011;15703;49.588;6.260;2023-04-03T09:07:36;2.63;;;2.20;;
28481;SDS011;15703;49.588;6.260;2023-04-03T09:10:00;4.70;;;3.07;;
28481;SDS011;15703;49.588;6.260;2023-04-03T09:12:25;2.63;;;2.03;;
28481;SDS011;15703;49.588;6.260;2023-04-03T09:18:06;3.43;;;2.23;;
28481;SDS011;15703;49.588;6.260;2023-04-03T09:22:50;2.87;;;2.30;;
28481;SDS011;15703;49.588;6.260;2023-04-03T09:25:18;2.27;;;2.00;;
28481;SDS011;15703;49.588;6.260;2023-04-03T09:27:42;2.90;;;2.20;;
28481;SDS011;15703;49.588;6.260;2023-04-03T09:30:05;4.43;;;2.00;;
28481;SDS011;15703;49.588;6.260;2023-04-03T09:32:29;2.30;;;2.10;;
28481;SDS011;15703;49.588;6.260;2023-04-03T09:34:55;2.23;;;2.03;;
28481;SDS011;15703;49.588;6.260;2023-04-03T09:37:40;2.33;;;2.13;;
28481;SDS011;15703;49.588;6.260;2023-04-03T09:40:03;3.50;;;2.27;;
28481;SDS011;15703;49.588;6.260;2023-04-03T09:42:26;2.90;;;2.60;;
28481;SDS011;15703;49.588;6.260;2023-04-03T09:44:59;2.93;;;2.47;;
28481;SDS011;15703;49.588;6.260;2023-04-03T09:47:26;2.80;;;2.23;;
28481;SDS011;15703;49.588;6.260;2023-04-03T09:49:49;3.17;;;2.20;;
28481;SDS011;15703;49.588;6.260;2023-04-03T09:52:24;4.20;;;2.23;;
28481;SDS011;15703;49.588;6.260;2023-04-03T09:54:50;3.53;;;2.00;;
28481;SDS011;15703;49.588;6.260;2023-04-03T09:57:13;2.30;;;1.90;;
28481;SDS011;15703;49.588;6.260;2023-04-03T09:59:37;3.73;;;2.03;;
28481;SDS011;15703;49.588;6.260;2023-04-03T10:02:04;3.30;;;3.00;;
28481;SDS011;15703;49.588;6.260;2023-04-03T10:04:39;2.73;;;2.50;;
28481;SDS011;15703;49.588;6.260;2023-04-03T10:07:02;2.60;;;2.00;;
28481;SDS011;15703;49.588;6.260;2023-04-03T10:09:34;2.63;;;2.30;;
28481;SDS011;15703;49.588;6.260;2023-04-03T10:12:10;4.07;;;2.33;;
28481;SDS011;15703;49.588;6.260;2023-04-03T10:14:37;4.07;;;2.30;;
28481;SDS011;15703;49.588;6.260;2023-04-03T10:21:55;2.60;;;2.23;;
28481;SDS011;15703;49.588;6.260;2023-04-03T10:24:28;3.50;;;2.50;;
28481;SDS011;15703;49.588;6.260;2023-04-03T10:26:55;5.17;;;3.30;;
28481;SDS011;15703;49.588;6.260;2023-04-03T10:44:28;5.63;;;4.27;;
28481;SDS011;15703;49.588;6.260;2023-04-03T10:47:18;3.87;;;2.57;;
28481;SDS011;15703;49.588;6.260;2023-04-03T10:52:22;2.67;;;2.10;;
28481;SDS011;15703;49.588;6.260;2023-04-03T10:57:24;3.33;;;2.37;;
28481;SDS011;15703;49.588;6.260;2023-04-03T10:59:49;5.40;;;2.60;;
28481;SDS011;15703;49.588;6.260;2023-04-03T11:04:35;2.80;;;2.00;;
28481;SDS011;15703;49.588;6.260;2023-04-03T11:07:04;2.57;;;1.80;;
28481;SDS011;15703;49.588;6.260;2023-04-03T11:09:31;4.97;;;1.83;;
28481;SDS011;15703;49.588;6.260;2023-04-03T11:12:04;2.03;;;1.53;;
28481;SDS011;15703;49.588;6.260;2023-04-03T11:14:28;5.13;;;2.50;;
28481;SDS011;15703;49.588;6.260;2023-04-03T11:17:11;3.63;;;1.90;;
28481;SDS011;15703;49.588;6.260;2023-04-03T11:24:29;2.27;;;1.70;;
28481;SDS011;15703;49.588;6.260;2023-04-03T11:26:53;2.80;;;1.90;;
28481;SDS011;15703;49.588;6.260;2023-04-03T11:29:21;2.37;;;2.03;;
28481;SDS011;15703;49.588;6.260;2023-04-03T11:34:24;2.87;;;2.10;;
28481;SDS011;15703;49.588;6.260;2023-04-03T11:36:54;2.87;;;1.80;;
28481;SDS011;15703;49.588;6.260;2023-04-03T11:41:39;2.63;;;2.20;;
28481;SDS011;15703;49.588;6.260;2023-04-03T11:46:56;2.13;;;1.50;;
28481;SDS011;15703;49.588;6.260;2023-04-03T11:49:50;1.97;;;1.60;;
28481;SDS011;15703;49.588;6.260;2023-04-03T11:52:01;2.77;;;1.63;;
28481;SDS011;15703;49.588;6.260;2023-04-03T11:54:35;2.87;;;1.83;;
28481;SDS011;15703;49.588;6.260;2023-04-03T11:59:49;1.90;;;1.70;;
28481;SDS011;15703;49.588;6.260;2023-04-03T12:02:45;4.83;;;1.90;;
28481;SDS011;15703;49.588;6.260;2023-04-03T12:13:31;3.67;;;1.80;;
28481;SDS011;15703;49.588;6.260;2023-04-03T12:15:53;2.93;;;1.80;;
28481;SDS011;15703;49.588;6.260;2023-04-03T12:20:59;3.23;;;1.80;;
28481;SDS011;15703;49.588;6.260;2023-04-03T12:23:27;2.23;;;1.80;;
28481;SDS011;15703;49.588;6.260;2023-04-03T12:25:50;3.47;;;1.83;;
28481;SDS011;15703;49.588;6.260;2023-04-03T12:28:16;2.37;;;1.70;;
28481;SDS011;15703;49.588;6.260;2023-04-03T12:30:47;2.77;;;1.60;;
28481;SDS011;15703;49.588;6.260;2023-04-03T12:33:13;2.17;;;1.40;;
28481;SDS011;15703;49.588;6.260;2023-04-03T12:45:28;2.63;;;1.73;;
28481;SDS011;15703;49.588;6.260;2023-04-03T12:47:55;2.57;;;1.70;;
28481;SDS011;15703;49.588;6.260;2023-04-03T12:50:22;2.43;;;1.67;;
28481;SDS011;15703;49.588;6.260;2023-04-03T12:52:46;2.00;;;1.90;;
28481;SDS011;15703;49.588;6.260;2023-04-03T12:55:17;3.83;;;1.63;;
28481;SDS011;15703;49.588;6.260;2023-04-03T12:57:39;2.07;;;1.87;;
28481;SDS011;15703;49.588;6.260;2023-04-03T13:03:06;3.50;;;1.97;;
28481;SDS011;15703;49.588;6.260;2023-04-03T13:05:29;1.63;;;1.53;;
28481;SDS011;15703;49.588;6.260;2023-04-03T13:08:01;2.23;;;1.60;;
28481;SDS011;15703;49.588;6.260;2023-04-03T13:10:24;1.50;;;1.40;;
28481;SDS011;15703;49.588;6.260;2023-04-03T13:15:17;4.20;;;1.67;;
28481;SDS011;15703;49.588;6.260;2023-04-03T13:17:44;2.17;;;1.40;;
28481;SDS011;15703;49.588;6.260;2023-04-03T13:20:49;2.13;;;1.57;;
28481;SDS011;15703;49.588;6.260;2023-04-03T13:22:56;2.77;;;1.67;;
28481;SDS011;15703;49.588;6.260;2023-04-03T13:25:20;3.57;;;1.77;;
28481;SDS011;15703;49.588;6.260;2023-04-03T13:27:49;2.90;;;1.47;;
28481;SDS011;15703;49.588;6.260;2023-04-03T13:30:23;5.53;;;1.80;;
28481;SDS011;15703;49.588;6.260;2023-04-03T13:32:49;2.50;;;1.70;;
28481;SDS011;15703;49.588;6.260;2023-04-03T13:37:58;1.93;;;1.47;;
28481;SDS011;15703;49.588;6.260;2023-04-03T13:40:21;3.20;;;1.60;;
28481;SDS011;15703;49.588;6.260;2023-04-03T13:42:44;2.97;;;1.57;;
28481;SDS011;15703;49.588;6.260;2023-04-03T13:47:46;3.50;;;1.57;;
28481;SDS011;15703;49.588;6.260;2023-04-03T13:52:38;5.17;;;1.93;;
28481;SDS011;15703;49.588;6.260;2023-04-03T13:55:03;3.80;;;1.47;;
28481;SDS011;15703;49.588;6.260;2023-04-03T14:02:54;2.93;;;1.37;;
28481;SDS011;15703;49.588;6.260;2023-04-03T14:05:17;1.67;;;1.47;;
28481;SDS011;15703;49.588;6.260;2023-04-03T14:07:42;2.27;;;1.63;;
28481;SDS011;15703;49.588;6.260;2023-04-03T14:10:05;2.57;;;1.47;;
28481;SDS011;15703;49.588;6.260;2023-04-03T14:12:37;2.43;;;1.50;;
28481;SDS011;15703;49.588;6.260;2023-04-03T14:15:20;3.43;;;1.87;;
28481;SDS011;15703;49.588;6.260;2023-04-03T14:17:45;1.83;;;1.37;;
28481;SDS011;15703;49.588;6.260;2023-04-03T14:20:16;1.83;;;1.60;;
28481;SDS011;15703;49.588;6.260;2023-04-03T14:22:41;1.40;;;1.30;;
28481;SDS011;15703;49.588;6.260;2023-04-03T14:25:03;2.13;;;1.77;;
28481;SDS011;15703;49.588;6.260;2023-04-03T14:29:50;2.90;;;1.80;;
28481;SDS011;15703;49.588;6.260;2023-04-03T14:32:16;2.37;;;1.50;;
28481;SDS011;15703;49.588;6.260;2023-04-03T14:34:39;1.50;;;1.40;;
28481;SDS011;15703;49.588;6.260;2023-04-03T14:37:01;2.67;;;1.57;;
28481;SDS011;15703;49.588;6.260;2023-04-03T14:39:24;3.23;;;1.40;;
28481;SDS011;15703;49.588;6.260;2023-04-03T14:41:46;3.10;;;1.40;;
28481;SDS011;15703;49.588;6.260;2023-04-03T14:44:09;5.40;;;1.40;;
28481;SDS011;15703;49.588;6.260;2023-04-03T14:46:34;1.90;;;1.50;;
28481;SDS011;15703;49.588;6.260;2023-04-03T14:49:17;2.37;;;1.50;;
28481;SDS011;15703;49.588;6.260;2023-04-03T14:51:43;8.00;;;1.60;;
28481;SDS011;15703;49.588;6.260;2023-04-03T14:54:09;1.57;;;1.40;;
28481;SDS011;15703;49.588;6.260;2023-04-03T14:56:35;4.10;;;2.00;;
28481;SDS011;15703;49.588;6.260;2023-04-03T14:58:59;3.37;;;1.30;;
28481;SDS011;15703;49.588;6.260;2023-04-03T15:01:25;1.67;;;1.30;;
28481;SDS011;15703;49.588;6.260;2023-04-03T15:03:48;2.37;;;1.40;;
28481;SDS011;15703;49.588;6.260;2023-04-03T15:06:14;4.20;;;1.77;;
28481;SDS011;15703;49.588;6.260;2023-04-03T15:08:37;2.73;;;1.70;;
28481;SDS011;15703;49.588;6.260;2023-04-03T15:10:59;2.17;;;1.47;;
28481;SDS011;15703;49.588;6.260;2023-04-03T15:13:31;3.70;;;1.90;;
28481;SDS011;15703;49.588;6.260;2023-04-03T15:15:53;2.37;;;1.30;;
28481;SDS011;15703;49.588;6.260;2023-04-03T15:18:23;3.50;;;1.63;;
28481;SDS011;15703;49.588;6.260;2023-04-03T15:20:49;1.90;;;1.50;;
28481;SDS011;15703;49.588;6.260;2023-04-03T15:23:13;4.17;;;1.73;;
28481;SDS011;15703;49.588;6.260;2023-04-03T15:25:36;2.77;;;1.70;;
28481;SDS011;15703;49.588;6.260;2023-04-03T15:27:59;2.20;;;1.40;;
28481;SDS011;15703;49.588;6.260;2023-04-03T15:30:29;3.73;;;1.43;;
28481;SDS011;15703;49.588;6.260;2023-04-03T15:32:52;6.53;;;1.50;;
28481;SDS011;15703;49.588;6.260;2023-04-03T15:35:15;4.93;;;2.13;;
28481;SDS011;15703;49.588;6.260;2023-04-03T15:37:37;2.30;;;1.80;;
28481;SDS011;15703;49.588;6.260;2023-04-03T15:39:59;2.20;;;1.50;;
28481;SDS011;15703;49.588;6.260;2023-04-03T15:42:22;3.53;;;1.57;;
28481;SDS011;15703;49.588;6.260;2023-04-03T15:44:45;1.73;;;1.60;;
28481;SDS011;15703;49.588;6.260;2023-04-03T15:47:07;2.17;;;1.80;;
28481;SDS011;15703;49.588;6.260;2023-04-03T15:49:30;2.73;;;1.40;;
28481;SDS011;15703;49.588;6.260;2023-04-03T15:51:57;3.53;;;1.60;;
28481;SDS011;15703;49.588;6.260;2023-04-03T15:54:27;1.97;;;1.33;;
28481;SDS011;15703;49.588;6.260;2023-04-03T15:56:51;2.43;;;1.40;;
28481;SDS011;15703;49.588;6.260;2023-04-03T15:59:14;1.83;;;1.53;;
28481;SDS011;15703;49.588;6.260;2023-04-03T16:01:37;2.30;;;1.50;;
28481;SDS011;15703;49.588;6.260;2023-04-03T16:04:00;2.77;;;2.00;;
28481;SDS011;15703;49.588;6.260;2023-04-03T16:06:24;3.33;;;1.70;;
28481;SDS011;15703;49.588;6.260;2023-04-03T16:08:49;2.73;;;1.40;;
28481;SDS011;15703;49.588;6.260;2023-04-03T16:11:13;2.23;;;1.80;;
28481;SDS011;15703;49.588;6.260;2023-04-03T16:13:39;2.90;;;1.67;;
28481;SDS011;15703;49.588;6.260;2023-04-03T16:16:04;2.37;;;1.80;;
28481;SDS011;15703;49.588;6.260;2023-04-03T16:18:27;3.07;;;1.90;;